createdAt,value
2023-02-06T00:01:42.430Z,20.73
2023-02-06T00:04:10.870Z,13.47
2023-02-06T00:06:39.272Z,13.90
2023-02-06T00:09:08.124Z,10.57
2023-02-06T00:11:36.531Z,11.87
2023-02-06T00:14:05.422Z,11.43
2023-02-06T00:16:34.517Z,18.30
2023-02-06T00:19:04.470Z,16.50
2023-02-06T00:21:32.889Z,13.00
2023-02-06T00:24:01.875Z,15.67
2023-02-06T00:26:31.334Z,16.63
2023-02-06T00:28:59.852Z,17.00
2023-02-06T00:31:28.340Z,9.00
2023-02-06T00:33:56.726Z,8.87
2023-02-06T00:36:26.532Z,14.60
2023-02-06T00:38:54.962Z,16.53
2023-02-06T00:41:23.640Z,20.30
2023-02-06T00:43:52.152Z,15.10
2023-02-06T00:46:20.583Z,20.63
2023-02-06T00:48:49.028Z,13.60
2023-02-06T00:51:17.378Z,10.80
2023-02-06T00:53:49.067Z,20.50
2023-02-06T00:56:19.371Z,21.10
2023-02-06T00:58:47.761Z,25.87
2023-02-06T01:01:16.197Z,19.03
2023-02-06T01:03:44.643Z,19.10
2023-02-06T01:06:13.054Z,27.37
2023-02-06T01:08:41.474Z,19.83
2023-02-06T01:11:14.450Z,25.00
2023-02-06T01:13:43.143Z,21.17
2023-02-06T01:16:12.061Z,26.60
2023-02-06T01:18:40.908Z,29.00
2023-02-06T01:21:10.299Z,28.27
2023-02-06T01:23:39.415Z,15.53
2023-02-06T01:26:08.102Z,35.00
2023-02-06T01:28:38.870Z,30.27
2023-02-06T01:31:11.949Z,21.17
2023-02-06T01:33:40.529Z,18.27
2023-02-06T01:36:09.427Z,26.80
2023-02-06T01:38:37.967Z,19.47
2023-02-06T01:41:06.683Z,20.50
2023-02-06T01:43:36.361Z,29.30
2023-02-06T01:46:06.305Z,20.90
2023-02-06T01:48:36.309Z,16.93
2023-02-06T01:51:05.602Z,23.97
2023-02-06T01:53:34.292Z,17.73
2023-02-06T01:56:04.953Z,26.23
2023-02-06T01:58:35.983Z,23.73
2023-02-06T02:01:06.299Z,18.17
2023-02-06T02:03:36.142Z,23.63
2023-02-06T02:06:07.954Z,32.03
2023-02-06T02:08:39.176Z,17.20
2023-02-06T02:11:08.490Z,22.60
2023-02-06T02:13:38.335Z,27.33
2023-02-06T02:16:12.859Z,20.47
2023-02-06T02:18:52.813Z,9.50
2023-02-06T02:21:33.791Z,17.57
2023-02-06T02:24:04.381Z,14.70
2023-02-06T02:26:50.612Z,19.77
2023-02-06T02:29:35.393Z,20.40
2023-02-06T02:32:22.501Z,21.10
2023-02-06T02:35:07.521Z,20.37
2023-02-06T02:37:39.660Z,25.03
2023-02-06T02:40:13.228Z,16.63
2023-02-06T02:42:43.828Z,27.13
2023-02-06T02:45:15.557Z,15.00
2023-02-06T02:47:47.521Z,16.43
2023-02-06T02:50:18.004Z,20.40
2023-02-06T02:52:46.876Z,24.57
2023-02-06T02:55:19.293Z,27.73
2023-02-06T02:57:48.768Z,19.50
2023-02-06T03:00:17.756Z,22.73
2023-02-06T03:02:47.236Z,30.37
2023-02-06T03:05:20.686Z,23.40
2023-02-06T03:07:54.660Z,21.10
2023-02-06T03:10:29.069Z,22.60
2023-02-06T03:12:58.765Z,15.00
2023-02-06T03:15:29.587Z,23.57
2023-02-06T03:18:03.094Z,24.20
2023-02-06T03:20:33.759Z,26.10
2023-02-06T03:23:03.706Z,15.33
2023-02-06T03:25:35.332Z,20.63
2023-02-06T03:28:05.306Z,35.60
2023-02-06T03:30:34.435Z,34.53
2023-02-06T03:33:03.474Z,36.30
2023-02-06T03:35:34.844Z,27.70
2023-02-06T03:38:03.720Z,18.80
2023-02-06T03:40:32.501Z,22.63
2023-02-06T03:43:01.983Z,20.80
2023-02-06T03:45:38.970Z,29.13
2023-02-06T03:48:10.622Z,24.47
2023-02-06T03:50:42.351Z,31.37
2023-02-06T03:53:11.533Z,17.60
2023-02-06T03:55:40.784Z,28.80
2023-02-06T03:58:21.171Z,28.33
2023-02-06T04:00:51.944Z,27.70
2023-02-06T04:03:21.540Z,35.17
2023-02-06T04:05:51.317Z,18.30
2023-02-06T04:08:19.804Z,47.83
2023-02-06T04:10:49.149Z,30.30
2023-02-06T04:13:17.517Z,31.73
2023-02-06T04:15:46.014Z,19.97
2023-02-06T04:18:14.480Z,13.23
2023-02-06T04:20:42.918Z,25.57
2023-02-06T04:23:12.701Z,12.87
2023-02-06T04:25:41.206Z,24.90
2023-02-06T04:28:09.843Z,24.47
2023-02-06T04:30:38.325Z,19.50
2023-02-06T04:33:07.174Z,30.60
2023-02-06T04:35:35.752Z,44.57
2023-02-06T04:38:04.398Z,40.33
2023-02-06T04:40:34.123Z,21.90
2023-02-06T04:43:02.533Z,34.40
2023-02-06T04:45:31.012Z,31.83
2023-02-06T04:47:59.650Z,22.93
2023-02-06T04:50:31.323Z,14.53
2023-02-06T04:52:59.905Z,30.27
2023-02-06T04:55:28.311Z,52.53
2023-02-06T04:57:58.098Z,19.77
2023-02-06T05:00:26.504Z,26.37
2023-02-06T05:02:55.009Z,11.77
2023-02-06T05:05:23.450Z,21.63
2023-02-06T05:07:51.897Z,20.37
2023-02-06T05:10:20.423Z,28.23
2023-02-06T05:12:50.895Z,20.07
2023-02-06T05:15:20.891Z,20.17
2023-02-06T05:17:49.279Z,15.40
2023-02-06T05:20:17.821Z,20.53
2023-02-06T05:22:46.262Z,13.50
2023-02-06T05:25:14.713Z,31.93
2023-02-06T05:27:43.188Z,14.17
2023-02-06T05:30:12.446Z,18.40
2023-02-06T05:32:42.379Z,37.07
2023-02-06T05:35:10.961Z,23.77
2023-02-06T05:37:39.564Z,24.50
2023-02-06T05:40:08.660Z,22.43
2023-02-06T05:42:37.213Z,24.33
2023-02-06T05:45:05.937Z,34.80
2023-02-06T05:47:36.220Z,21.10
2023-02-06T05:50:06.250Z,22.10
2023-02-06T05:52:34.766Z,12.43
2023-02-06T05:55:05.114Z,17.67
2023-02-06T05:57:33.455Z,12.70
2023-02-06T06:00:02.375Z,27.97
2023-02-06T06:02:32.681Z,21.83
2023-02-06T06:05:03.090Z,17.50
2023-02-06T06:07:32.932Z,25.83
2023-02-06T06:10:01.402Z,31.10
2023-02-06T06:12:31.744Z,39.10
2023-02-06T06:15:00.178Z,22.30
2023-02-06T06:17:28.635Z,19.63
2023-02-06T06:19:58.888Z,25.83
2023-02-06T06:22:29.140Z,18.53
2023-02-06T06:24:59.113Z,28.77
2023-02-06T06:27:29.354Z,18.13
2023-02-06T06:29:59.795Z,20.30
2023-02-06T06:32:30.122Z,19.90
2023-02-06T06:35:00.580Z,27.00
2023-02-06T06:37:30.866Z,20.67
2023-02-06T06:40:02.700Z,29.83
2023-02-06T06:42:33.055Z,26.27
2023-02-06T06:45:01.483Z,20.10
2023-02-06T06:47:31.843Z,30.33
2023-02-06T06:50:00.226Z,30.97
2023-02-06T06:52:30.582Z,30.60
2023-02-06T06:55:00.999Z,26.50
2023-02-06T06:57:33.870Z,24.00
2023-02-06T07:00:02.369Z,30.50
2023-02-06T07:02:32.738Z,27.27
2023-02-06T07:05:03.082Z,30.70
2023-02-06T07:07:33.652Z,30.00
2023-02-06T07:10:04.998Z,24.70
2023-02-06T07:12:36.787Z,29.67
2023-02-06T07:15:05.479Z,52.83
2023-02-06T07:17:33.888Z,18.90
2023-02-06T07:20:04.440Z,17.33
2023-02-06T07:22:32.902Z,26.00
2023-02-06T07:25:03.336Z,37.33
2023-02-06T07:27:31.745Z,36.70
2023-02-06T07:30:05.603Z,19.77
2023-02-06T07:32:36.590Z,16.07
2023-02-06T07:35:06.969Z,31.10
2023-02-06T07:37:37.340Z,21.23
2023-02-06T07:40:06.322Z,32.93
2023-02-06T07:42:36.762Z,20.60
2023-02-06T07:45:08.998Z,32.37
2023-02-06T07:47:39.480Z,12.63
2023-02-06T07:50:10.250Z,13.50
2023-02-06T07:52:38.935Z,42.43
2023-02-06T07:55:10.565Z,24.07
2023-02-06T07:57:40.964Z,23.87
2023-02-06T08:00:13.549Z,15.37
2023-02-06T08:02:43.963Z,9.53
2023-02-06T08:05:12.404Z,16.50
2023-02-06T08:07:40.972Z,19.37
2023-02-06T08:10:09.929Z,51.50
2023-02-06T08:12:38.266Z,19.37
2023-02-06T08:15:08.899Z,11.97
2023-02-06T08:17:38.574Z,27.30
2023-02-06T08:20:09.055Z,13.17
2023-02-06T08:22:37.514Z,37.20
2023-02-06T08:25:06.752Z,17.30
2023-02-06T08:27:37.018Z,17.13
2023-02-06T08:30:07.643Z,26.97
2023-02-06T08:32:36.556Z,32.70
2023-02-06T08:35:08.537Z,17.23
2023-02-06T08:37:37.032Z,23.07
2023-02-06T08:40:07.535Z,60.03
2023-02-06T08:42:36.048Z,14.13
2023-02-06T08:45:04.436Z,38.00
2023-02-06T08:47:34.757Z,15.17
2023-02-06T08:50:03.947Z,31.03
2023-02-06T08:52:35.787Z,12.03
2023-02-06T08:55:06.179Z,22.50
2023-02-06T08:57:36.529Z,13.60
2023-02-06T09:00:07.483Z,19.10
2023-02-06T09:02:37.921Z,16.20
2023-02-06T09:05:08.565Z,20.93
2023-02-06T09:07:40.131Z,27.43
2023-02-06T09:10:18.969Z,22.83
2023-02-06T09:12:57.713Z,20.30
2023-02-06T09:15:28.178Z,14.40
2023-02-06T09:17:58.512Z,14.07
2023-02-06T09:20:28.947Z,19.87
2023-02-06T09:23:00.789Z,18.83
2023-02-06T09:25:29.261Z,16.90
2023-02-06T09:27:59.715Z,13.73
2023-02-06T09:30:30.169Z,18.40
2023-02-06T09:32:58.719Z,13.27
2023-02-06T09:35:27.171Z,20.70
2023-02-06T09:37:57.592Z,12.00
2023-02-06T09:40:30.622Z,8.47
2023-02-06T09:42:59.200Z,21.13
2023-02-06T09:45:29.107Z,16.33
2023-02-06T09:47:58.903Z,12.83
2023-02-06T09:50:28.732Z,13.63
2023-02-06T09:53:06.300Z,10.97
2023-02-06T09:55:42.809Z,18.57
2023-02-06T09:58:20.205Z,16.00
2023-02-06T10:00:50.820Z,13.20
2023-02-06T10:03:24.601Z,14.70
2023-02-06T10:05:57.681Z,10.67
2023-02-06T10:08:27.727Z,9.57
2023-02-06T10:10:58.591Z,10.60
2023-02-06T10:13:32.685Z,17.23
2023-02-06T10:16:09.101Z,6.10
2023-02-06T10:18:41.208Z,7.73
2023-02-06T10:21:16.454Z,5.10
2023-02-06T10:23:47.686Z,6.20
2023-02-06T10:26:19.168Z,4.77
2023-02-06T10:28:49.990Z,4.10
2023-02-06T10:31:28.087Z,5.87
2023-02-06T10:34:03.960Z,4.23
2023-02-06T10:36:46.053Z,9.90
2023-02-06T10:39:29.777Z,9.47
2023-02-06T10:42:05.253Z,10.17
2023-02-06T10:44:36.682Z,4.60
2023-02-06T10:47:09.410Z,4.67
2023-02-06T10:49:40.739Z,4.00
2023-02-06T10:52:16.632Z,3.57
2023-02-06T10:54:51.104Z,5.67
2023-02-06T10:57:25.056Z,3.10
2023-02-06T10:59:56.144Z,3.10
2023-02-06T11:02:25.974Z,2.43
2023-02-06T11:04:56.297Z,3.60
2023-02-06T11:07:27.749Z,10.80
2023-02-06T11:09:58.187Z,5.53
2023-02-06T11:12:31.664Z,6.77
2023-02-06T11:15:05.083Z,1.50
2023-02-06T11:17:33.568Z,3.50
2023-02-06T11:20:07.570Z,4.10
2023-02-06T11:22:51.101Z,3.50
2023-02-06T11:25:24.842Z,4.33
2023-02-06T11:27:54.975Z,7.03
2023-02-06T11:30:29.544Z,6.80
2023-02-06T11:33:04.640Z,10.50
2023-02-06T11:35:35.529Z,3.67
2023-02-06T11:38:10.987Z,3.97
2023-02-06T11:40:39.551Z,3.43
2023-02-06T11:43:19.379Z,5.53
2023-02-06T11:45:52.273Z,5.20
2023-02-06T11:48:40.348Z,4.60
2023-02-06T11:51:09.835Z,5.17
2023-02-06T11:53:40.738Z,4.10
2023-02-06T11:56:20.415Z,4.40
2023-02-06T11:59:06.783Z,4.00
2023-02-06T12:01:39.753Z,4.63
2023-02-06T12:04:17.201Z,4.33
2023-02-06T12:06:45.660Z,6.37
2023-02-06T12:09:16.535Z,3.63
2023-02-06T12:11:49.473Z,4.00
2023-02-06T12:14:22.500Z,4.10
2023-02-06T12:16:51.080Z,5.50
2023-02-06T12:19:21.362Z,2.90
2023-02-06T12:21:50.802Z,5.17
2023-02-06T12:24:28.653Z,4.20
2023-02-06T12:26:57.592Z,3.93
2023-02-06T12:29:30.020Z,5.73
2023-02-06T12:32:00.827Z,3.20
2023-02-06T12:34:31.928Z,7.13
2023-02-06T12:37:14.111Z,3.90
2023-02-06T12:39:45.695Z,4.10
2023-02-06T12:42:22.483Z,6.03
2023-02-06T12:44:54.220Z,4.70
2023-02-06T12:47:26.152Z,6.30
2023-02-06T12:49:56.938Z,7.40
2023-02-06T12:52:27.667Z,3.30
2023-02-06T12:54:59.687Z,3.40
2023-02-06T12:57:31.839Z,3.23
2023-02-06T13:00:09.637Z,3.50
2023-02-06T13:02:55.651Z,3.60
2023-02-06T13:05:26.972Z,4.83
2023-02-06T13:07:58.502Z,3.67
2023-02-06T13:10:29.776Z,5.87
2023-02-06T13:12:59.539Z,9.17
2023-02-06T13:15:32.614Z,9.07
2023-02-06T13:18:01.118Z,3.33
2023-02-06T13:20:33.306Z,5.70
2023-02-06T13:23:18.650Z,5.33
2023-02-06T13:25:52.240Z,3.73
2023-02-06T13:28:41.465Z,7.60
2023-02-06T13:31:24.093Z,4.63
2023-02-06T13:33:53.987Z,7.83
2023-02-06T13:36:28.927Z,6.00
2023-02-06T13:38:58.087Z,5.10
2023-02-06T13:41:32.129Z,4.03
2023-02-06T13:44:02.048Z,6.57
2023-02-06T13:46:41.761Z,8.87
2023-02-06T13:49:26.716Z,2.40
2023-02-06T13:51:59.616Z,8.10
2023-02-06T13:54:34.235Z,3.03
2023-02-06T13:57:15.914Z,6.10
2023-02-06T13:59:48.904Z,7.60
2023-02-06T14:02:24.316Z,4.50
2023-02-06T14:04:52.936Z,5.37
2023-02-06T14:07:33.815Z,9.10
2023-02-06T14:10:09.591Z,5.23
2023-02-06T14:12:47.085Z,4.97
2023-02-06T14:15:21.261Z,4.33
2023-02-06T14:18:04.250Z,11.90
2023-02-06T14:20:36.068Z,8.63
2023-02-06T14:23:08.891Z,4.20
2023-02-06T14:25:55.699Z,4.30
2023-02-06T14:28:28.613Z,5.97
2023-02-06T14:31:00.851Z,3.83
2023-02-06T14:33:40.054Z,5.20
2023-02-06T14:36:16.453Z,5.03
2023-02-06T14:39:03.418Z,14.73
2023-02-06T14:41:33.200Z,5.90
2023-02-06T14:44:02.197Z,3.30
2023-02-06T14:46:30.968Z,3.50
2023-02-06T14:49:00.994Z,4.70
2023-02-06T14:51:33.918Z,3.47
2023-02-06T14:54:05.344Z,3.87
2023-02-06T14:56:34.496Z,2.57
2023-02-06T14:59:19.028Z,5.20
2023-02-06T15:01:50.813Z,7.70
2023-02-06T15:04:22.121Z,4.43
2023-02-06T15:06:56.617Z,4.07
2023-02-06T15:09:26.991Z,4.07
2023-02-06T15:11:57.977Z,2.40
2023-02-06T15:14:27.169Z,8.13
2023-02-06T15:17:01.082Z,8.43
2023-02-06T15:19:33.589Z,2.60
2023-02-06T15:22:03.329Z,4.20
2023-02-06T15:24:37.497Z,2.97
2023-02-06T15:27:10.207Z,4.10
2023-02-06T15:29:40.799Z,3.67
2023-02-06T15:32:12.137Z,5.47
2023-02-06T15:34:44.023Z,5.60
2023-02-06T15:37:24.511Z,2.20
2023-02-06T15:39:53.621Z,3.20
2023-02-06T15:42:22.750Z,14.50
2023-02-06T15:44:53.660Z,4.90
2023-02-06T15:47:22.285Z,3.37
2023-02-06T15:49:56.990Z,10.57
2023-02-06T15:52:39.563Z,6.00
2023-02-06T15:55:08.161Z,13.10
2023-02-06T15:57:39.414Z,5.70
2023-02-06T16:00:10.560Z,3.43
2023-02-06T16:02:41.584Z,15.50
2023-02-06T16:05:21.220Z,3.43
2023-02-06T16:07:51.316Z,10.30
2023-02-06T16:10:22.914Z,3.97
2023-02-06T16:12:51.810Z,11.43
2023-02-06T16:15:29.555Z,2.43
2023-02-06T16:17:58.607Z,2.40
2023-02-06T16:20:33.289Z,2.90
2023-02-06T16:23:22.561Z,5.20
2023-02-06T16:25:51.859Z,3.57
2023-02-06T16:28:22.950Z,4.37
2023-02-06T16:30:57.956Z,3.63
2023-02-06T16:33:35.063Z,3.60
2023-02-06T16:36:08.255Z,7.30
2023-02-06T16:38:39.669Z,3.87
2023-02-06T16:41:27.450Z,4.47
2023-02-06T16:43:59.661Z,4.13
2023-02-06T16:46:29.058Z,4.03
2023-02-06T16:48:59.938Z,3.10
2023-02-06T16:51:33.284Z,5.33
2023-02-06T16:54:02.577Z,3.03
2023-02-06T16:56:33.058Z,3.30
2023-02-06T16:59:01.557Z,3.30
2023-02-06T17:01:30.093Z,3.10
2023-02-06T17:03:58.586Z,7.03
2023-02-06T17:06:27.886Z,5.47
2023-02-06T17:09:02.051Z,11.50
2023-02-06T17:11:30.475Z,6.00
2023-02-06T17:13:59.044Z,4.40
2023-02-06T17:16:28.095Z,5.03
2023-02-06T17:18:56.555Z,4.63
2023-02-06T17:21:32.628Z,9.33
2023-02-06T17:24:02.610Z,10.10
2023-02-06T17:26:31.112Z,10.63
2023-02-06T17:29:01.453Z,7.00
2023-02-06T17:31:31.994Z,3.53
2023-02-06T17:34:00.564Z,6.80
2023-02-06T17:36:32.758Z,2.93
2023-02-06T17:39:03.154Z,6.57
2023-02-06T17:41:33.622Z,5.90
2023-02-06T17:44:04.108Z,3.57
2023-02-06T17:46:33.139Z,10.83
2023-02-06T17:49:01.586Z,9.17
2023-02-06T17:51:32.013Z,6.23
2023-02-06T17:54:06.236Z,3.17
2023-02-06T17:56:35.085Z,27.47
2023-02-06T17:59:03.943Z,2.97
2023-02-06T18:01:32.591Z,4.50
2023-02-06T18:04:03.822Z,8.20
2023-02-06T18:06:34.506Z,4.87
2023-02-06T18:09:04.535Z,6.37
2023-02-06T18:11:35.823Z,6.00
2023-02-06T18:14:06.147Z,3.03
2023-02-06T18:16:34.614Z,4.63
2023-02-06T18:19:04.976Z,5.97
2023-02-06T18:21:35.338Z,6.80
2023-02-06T18:24:07.202Z,5.40
2023-02-06T18:26:39.370Z,3.70
2023-02-06T18:29:09.778Z,6.30
2023-02-06T18:31:40.422Z,7.50
2023-02-06T18:34:09.685Z,3.37
2023-02-06T18:36:38.598Z,3.87
2023-02-06T18:39:08.478Z,2.43
2023-02-06T18:41:54.746Z,3.10
2023-02-06T18:44:24.992Z,4.43
2023-02-06T18:46:53.519Z,3.20
2023-02-06T18:49:21.972Z,7.70
2023-02-06T18:51:50.477Z,4.57
2023-02-06T18:54:20.389Z,6.63
2023-02-06T18:56:49.839Z,4.83
2023-02-06T18:59:22.133Z,4.00
2023-02-06T19:01:51.963Z,6.10
2023-02-06T19:04:22.290Z,5.27
2023-02-06T19:06:52.732Z,12.63
2023-02-06T19:09:24.363Z,8.97
2023-02-06T19:11:52.756Z,6.50
2023-02-06T19:14:25.341Z,8.77
2023-02-06T19:16:55.028Z,10.07
2023-02-06T19:19:23.600Z,5.00
2023-02-06T19:21:52.205Z,5.27
2023-02-06T19:24:23.403Z,7.07
2023-02-06T19:26:53.842Z,11.33
2023-02-06T19:29:34.642Z,5.57
2023-02-06T19:32:03.851Z,5.73
2023-02-06T19:34:36.141Z,6.37
2023-02-06T19:37:06.661Z,5.23
2023-02-06T19:39:40.284Z,5.23
2023-02-06T19:42:10.467Z,5.23
2023-02-06T19:44:39.044Z,4.90
2023-02-06T19:47:10.722Z,5.47
2023-02-06T19:49:43.591Z,3.80
2023-02-06T19:52:15.240Z,7.90
2023-02-06T19:54:45.104Z,4.83
2023-02-06T19:57:19.303Z,5.20
2023-02-06T19:59:48.977Z,2.63
2023-02-06T20:02:18.567Z,2.87
2023-02-06T20:04:47.587Z,7.43
2023-02-06T20:07:15.731Z,7.00
2023-02-06T20:09:45.771Z,6.43
2023-02-06T20:12:14.199Z,6.33
2023-02-06T20:14:42.310Z,30.83
2023-02-06T20:17:10.419Z,10.30
2023-02-06T20:19:39.229Z,3.40
2023-02-06T20:22:07.802Z,5.50
2023-02-06T20:24:36.654Z,5.93
2023-02-06T20:27:08.554Z,10.53
2023-02-06T20:29:39.041Z,6.13
2023-02-06T20:32:09.425Z,5.77
2023-02-06T20:34:38.927Z,5.97
2023-02-06T20:37:08.204Z,3.60
2023-02-06T20:39:37.553Z,6.70
2023-02-06T20:42:08.440Z,6.20
2023-02-06T20:44:37.617Z,9.40
2023-02-06T20:47:05.802Z,7.60
2023-02-06T20:49:36.317Z,10.20
2023-02-06T20:52:04.508Z,5.50
2023-02-06T20:54:32.690Z,13.60
2023-02-06T20:57:01.280Z,8.77
2023-02-06T20:59:30.826Z,27.93
2023-02-06T21:01:58.949Z,7.20
2023-02-06T21:04:27.231Z,7.27
2023-02-06T21:06:55.526Z,6.00
2023-02-06T21:09:23.754Z,7.13
2023-02-06T21:11:51.988Z,4.27
2023-02-06T21:14:20.857Z,3.50
2023-02-06T21:16:50.934Z,4.90
2023-02-06T21:19:21.329Z,6.70
2023-02-06T21:21:50.173Z,3.77
2023-02-06T21:24:18.895Z,7.37
2023-02-06T21:26:47.131Z,4.90
2023-02-06T21:29:16.369Z,5.27
2023-02-06T21:31:44.806Z,7.27
2023-02-06T21:34:18.420Z,3.27
2023-02-06T21:36:46.948Z,3.57
2023-02-06T21:39:17.708Z,5.50
2023-02-06T21:41:46.959Z,7.07
2023-02-06T21:44:16.303Z,5.03
2023-02-06T21:46:45.536Z,8.90
2023-02-06T21:49:16.830Z,6.57
2023-02-06T21:51:46.143Z,12.23
2023-02-06T21:54:15.484Z,4.97
2023-02-06T21:56:44.814Z,5.30
2023-02-06T21:59:14.518Z,7.27
2023-02-06T22:01:44.095Z,6.20
2023-02-06T22:04:13.296Z,15.27
2023-02-06T22:06:44.056Z,4.00
2023-02-06T22:09:16.946Z,4.10
2023-02-06T22:11:49.145Z,4.40
2023-02-06T22:14:19.836Z,7.70
2023-02-06T22:16:49.468Z,11.40
2023-02-06T22:19:19.273Z,15.73
2023-02-06T22:21:50.214Z,7.67
2023-02-06T22:24:19.717Z,2.50
2023-02-06T22:26:49.112Z,7.57
2023-02-06T22:29:19.778Z,5.53
2023-02-06T22:31:49.566Z,4.50
2023-02-06T22:34:20.162Z,9.63
2023-02-06T22:36:51.893Z,6.20
2023-02-06T22:39:21.876Z,6.83
2023-02-06T22:41:51.469Z,5.63
2023-02-06T22:44:20.964Z,6.43
2023-02-06T22:46:51.430Z,13.20
2023-02-06T22:49:21.294Z,8.50
2023-02-06T22:51:52.154Z,4.73
2023-02-06T22:54:22.336Z,7.03
2023-02-06T22:56:50.456Z,6.87
2023-02-06T22:59:20.549Z,5.33
2023-02-06T23:01:50.611Z,5.60
2023-02-06T23:04:21.067Z,17.97
2023-02-06T23:06:51.529Z,12.47
2023-02-06T23:09:23.292Z,5.20
2023-02-06T23:11:52.220Z,11.97
2023-02-06T23:14:21.028Z,5.57
2023-02-06T23:16:49.283Z,8.03
2023-02-06T23:19:19.460Z,19.10
2023-02-06T23:21:52.262Z,16.03
2023-02-06T23:24:21.356Z,10.13
2023-02-06T23:26:50.770Z,8.90
2023-02-06T23:29:20.370Z,7.40
2023-02-06T23:31:49.362Z,6.00
2023-02-06T23:34:18.666Z,19.30
2023-02-06T23:36:47.599Z,4.63
2023-02-06T23:39:17.433Z,14.83
2023-02-06T23:41:45.607Z,2.20
2023-02-06T23:44:13.798Z,8.93
2023-02-06T23:46:55.198Z,8.33
2023-02-06T23:49:23.342Z,3.53
2023-02-06T23:51:51.541Z,2.90
2023-02-06T23:54:19.608Z,3.97
2023-02-06T23:56:47.760Z,4.10
2023-02-06T23:59:15.876Z,7.63
